sensor_id;sensor_type;location;lat;lon;timestamp;P1;durP1;ratioP1;P2;durP2;ratioP2
31694;SDS011;18289;51.330;4.946;2022-11-18T00:01:15;6.82;;;3.05;;
31694;SDS011;18289;51.330;4.946;2022-11-18T00:03:46;7.32;;;3.53;;
31694;SDS011;18289;51.330;4.946;2022-11-18T00:06:16;6.13;;;3.30;;
31694;SDS011;18289;51.330;4.946;2022-11-18T00:08:53;5.95;;;3.10;;
31694;SDS011;18289;51.330;4.946;2022-11-18T00:11:20;4.25;;;3.63;;
31694;SDS011;18289;51.330;4.946;2022-11-18T00:14:09;6.15;;;3.13;;
31694;SDS011;18289;51.330;4.946;2022-11-18T00:16:43;5.43;;;3.20;;
31694;SDS011;18289;51.330;4.946;2022-11-18T00:19:09;9.40;;;3.38;;
31694;SDS011;18289;51.330;4.946;2022-11-18T00:21:35;6.57;;;3.13;;
31694;SDS011;18289;51.330;4.946;2022-11-18T00:24:00;6.30;;;3.47;;
31694;SDS011;18289;51.330;4.946;2022-11-18T00:26:26;6.18;;;2.97;;
31694;SDS011;18289;51.330;4.946;2022-11-18T00:28:51;4.80;;;3.40;;
31694;SDS011;18289;51.330;4.946;2022-11-18T00:31:17;5.97;;;4.43;;
31694;SDS011;18289;51.330;4.946;2022-11-18T00:33:43;6.25;;;3.08;;
31694;SDS011;18289;51.330;4.946;2022-11-18T00:36:10;5.28;;;3.22;;
31694;SDS011;18289;51.330;4.946;2022-11-18T00:38:37;7.55;;;3.33;;
31694;SDS011;18289;51.330;4.946;2022-11-18T00:41:07;6.93;;;3.17;;
31694;SDS011;18289;51.330;4.946;2022-11-18T00:43:34;4.95;;;3.20;;
31694;SDS011;18289;51.330;4.946;2022-11-18T00:46:01;6.30;;;3.33;;
31694;SDS011;18289;51.330;4.946;2022-11-18T00:48:30;4.38;;;3.00;;
31694;SDS011;18289;51.330;4.946;2022-11-18T00:50:56;4.53;;;3.47;;
31694;SDS011;18289;51.330;4.946;2022-11-18T00:53:29;6.47;;;3.55;;
31694;SDS011;18289;51.330;4.946;2022-11-18T00:55:55;11.07;;;3.35;;
31694;SDS011;18289;51.330;4.946;2022-11-18T00:58:21;8.00;;;3.58;;
31694;SDS011;18289;51.330;4.946;2022-11-18T01:00:49;9.68;;;3.63;;
31694;SDS011;18289;51.330;4.946;2022-11-18T01:03:16;9.07;;;3.17;;
31694;SDS011;18289;51.330;4.946;2022-11-18T01:05:42;6.78;;;3.30;;
31694;SDS011;18289;51.330;4.946;2022-11-18T01:08:10;6.25;;;2.95;;
31694;SDS011;18289;51.330;4.946;2022-11-18T01:10:36;6.55;;;3.22;;
31694;SDS011;18289;51.330;4.946;2022-11-18T01:13:03;4.57;;;3.05;;
31694;SDS011;18289;51.330;4.946;2022-11-18T01:15:49;4.95;;;3.28;;
31694;SDS011;18289;51.330;4.946;2022-11-18T01:18:17;4.77;;;3.20;;
31694;SDS011;18289;51.330;4.946;2022-11-18T01:20:44;5.38;;;3.20;;
31694;SDS011;18289;51.330;4.946;2022-11-18T01:23:10;4.05;;;3.22;;
31694;SDS011;18289;51.330;4.946;2022-11-18T01:25:37;6.95;;;2.90;;
31694;SDS011;18289;51.330;4.946;2022-11-18T01:28:04;4.22;;;2.95;;
31694;SDS011;18289;51.330;4.946;2022-11-18T01:30:33;6.28;;;3.15;;
31694;SDS011;18289;51.330;4.946;2022-11-18T01:33:01;3.55;;;2.83;;
31694;SDS011;18289;51.330;4.946;2022-11-18T01:35:27;4.13;;;3.05;;
31694;SDS011;18289;51.330;4.946;2022-11-18T01:37:54;8.15;;;3.20;;
31694;SDS011;18289;51.330;4.946;2022-11-18T01:40:19;6.20;;;3.17;;
31694;SDS011;18289;51.330;4.946;2022-11-18T01:42:45;6.38;;;2.63;;
31694;SDS011;18289;51.330;4.946;2022-11-18T01:45:19;7.00;;;3.40;;
31694;SDS011;18289;51.330;4.946;2022-11-18T01:47:51;4.25;;;3.00;;
31694;SDS011;18289;51.330;4.946;2022-11-18T01:50:25;4.78;;;3.30;;
31694;SDS011;18289;51.330;4.946;2022-11-18T01:52:52;5.70;;;3.03;;
31694;SDS011;18289;51.330;4.946;2022-11-18T01:55:24;4.60;;;3.00;;
31694;SDS011;18289;51.330;4.946;2022-11-18T01:57:55;4.22;;;2.60;;
31694;SDS011;18289;51.330;4.946;2022-11-18T02:00:27;4.68;;;2.83;;
31694;SDS011;18289;51.330;4.946;2022-11-18T02:02:53;5.18;;;2.75;;
31694;SDS011;18289;51.330;4.946;2022-11-18T02:05:19;4.35;;;3.03;;
31694;SDS011;18289;51.330;4.946;2022-11-18T02:07:46;6.47;;;2.70;;
31694;SDS011;18289;51.330;4.946;2022-11-18T02:10:17;4.18;;;2.42;;
31694;SDS011;18289;51.330;4.946;2022-11-18T02:12:45;5.68;;;2.58;;
31694;SDS011;18289;51.330;4.946;2022-11-18T02:15:11;3.85;;;2.58;;
31694;SDS011;18289;51.330;4.946;2022-11-18T02:17:43;4.70;;;2.53;;
31694;SDS011;18289;51.330;4.946;2022-11-18T02:20:31;4.50;;;2.60;;
31694;SDS011;18289;51.330;4.946;2022-11-18T02:23:05;5.20;;;2.60;;
31694;SDS011;18289;51.330;4.946;2022-11-18T02:34:29;5.28;;;2.80;;
31694;SDS011;18289;51.330;4.946;2022-11-18T02:37:18;2.83;;;2.47;;
31694;SDS011;18289;51.330;4.946;2022-11-18T02:42:41;6.07;;;3.30;;
31694;SDS011;18289;51.330;4.946;2022-11-18T02:45:12;5.85;;;2.85;;
31694;SDS011;18289;51.330;4.946;2022-11-18T02:47:41;3.88;;;2.83;;
31694;SDS011;18289;51.330;4.946;2022-11-18T02:50:10;5.93;;;3.55;;
31694;SDS011;18289;51.330;4.946;2022-11-18T02:52:40;5.60;;;3.05;;
31694;SDS011;18289;51.330;4.946;2022-11-18T02:55:08;7.88;;;3.15;;
31694;SDS011;18289;51.330;4.946;2022-11-18T02:57:36;8.75;;;3.00;;
31694;SDS011;18289;51.330;4.946;2022-11-18T03:00:04;6.35;;;2.70;;
31694;SDS011;18289;51.330;4.946;2022-11-18T03:02:38;4.43;;;2.78;;
31694;SDS011;18289;51.330;4.946;2022-11-18T03:08:06;5.00;;;2.65;;
31694;SDS011;18289;51.330;4.946;2022-11-18T03:10:39;4.65;;;2.58;;
31694;SDS011;18289;51.330;4.946;2022-11-18T03:13:16;5.90;;;3.13;;
31694;SDS011;18289;51.330;4.946;2022-11-18T03:18:24;7.80;;;2.88;;
31694;SDS011;18289;51.330;4.946;2022-11-18T03:21:04;3.97;;;2.60;;
31694;SDS011;18289;51.330;4.946;2022-11-18T03:23:37;3.67;;;2.83;;
31694;SDS011;18289;51.330;4.946;2022-11-18T03:31:27;3.85;;;2.60;;
31694;SDS011;18289;51.330;4.946;2022-11-18T03:34:01;2.53;;;2.33;;
31694;SDS011;18289;51.330;4.946;2022-11-18T03:36:48;3.53;;;2.83;;
31694;SDS011;18289;51.330;4.946;2022-11-18T03:39:18;6.20;;;2.55;;
31694;SDS011;18289;51.330;4.946;2022-11-18T03:41:48;4.20;;;2.55;;
31694;SDS011;18289;51.330;4.946;2022-11-18T03:44:19;5.38;;;3.22;;
31694;SDS011;18289;51.330;4.946;2022-11-18T03:46:54;4.15;;;2.85;;
31694;SDS011;18289;51.330;4.946;2022-11-18T03:49:34;6.32;;;2.67;;
31694;SDS011;18289;51.330;4.946;2022-11-18T03:52:09;8.38;;;2.33;;
31694;SDS011;18289;51.330;4.946;2022-11-18T03:54:42;3.42;;;2.17;;
31694;SDS011;18289;51.330;4.946;2022-11-18T03:57:34;5.90;;;2.67;;
31694;SDS011;18289;51.330;4.946;2022-11-18T04:00:08;3.47;;;2.50;;
31694;SDS011;18289;51.330;4.946;2022-11-18T04:02:35;3.55;;;2.60;;
31694;SDS011;18289;51.330;4.946;2022-11-18T04:05:02;5.03;;;2.35;;
31694;SDS011;18289;51.330;4.946;2022-11-18T04:07:33;4.50;;;2.55;;
31694;SDS011;18289;51.330;4.946;2022-11-18T04:13:21;7.10;;;3.15;;
31694;SDS011;18289;51.330;4.946;2022-11-18T04:15:54;3.08;;;2.60;;
31694;SDS011;18289;51.330;4.946;2022-11-18T04:18:20;2.80;;;2.50;;
31694;SDS011;18289;51.330;4.946;2022-11-18T04:20:46;5.80;;;3.05;;
31694;SDS011;18289;51.330;4.946;2022-11-18T04:23:11;6.30;;;2.88;;
31694;SDS011;18289;51.330;4.946;2022-11-18T04:25:37;6.00;;;2.88;;
31694;SDS011;18289;51.330;4.946;2022-11-18T04:28:03;5.15;;;3.08;;
31694;SDS011;18289;51.330;4.946;2022-11-18T04:30:29;8.25;;;3.70;;
31694;SDS011;18289;51.330;4.946;2022-11-18T04:32:55;9.23;;;3.20;;
31694;SDS011;18289;51.330;4.946;2022-11-18T04:35:21;6.57;;;3.00;;
31694;SDS011;18289;51.330;4.946;2022-11-18T04:37:46;8.88;;;3.40;;
31694;SDS011;18289;51.330;4.946;2022-11-18T04:40:12;3.65;;;2.67;;
31694;SDS011;18289;51.330;4.946;2022-11-18T04:42:38;6.40;;;3.33;;
31694;SDS011;18289;51.330;4.946;2022-11-18T04:45:04;5.55;;;3.33;;
31694;SDS011;18289;51.330;4.946;2022-11-18T04:47:30;4.38;;;2.60;;
31694;SDS011;18289;51.330;4.946;2022-11-18T04:49:56;8.88;;;3.10;;
31694;SDS011;18289;51.330;4.946;2022-11-18T04:52:21;7.45;;;3.15;;
31694;SDS011;18289;51.330;4.946;2022-11-18T04:54:47;5.93;;;2.78;;
31694;SDS011;18289;51.330;4.946;2022-11-18T04:57:13;3.58;;;3.00;;
31694;SDS011;18289;51.330;4.946;2022-11-18T04:59:38;5.65;;;3.15;;
31694;SDS011;18289;51.330;4.946;2022-11-18T05:02:04;5.47;;;3.42;;
31694;SDS011;18289;51.330;4.946;2022-11-18T05:04:31;6.53;;;3.00;;
31694;SDS011;18289;51.330;4.946;2022-11-18T05:06:58;5.35;;;3.45;;
31694;SDS011;18289;51.330;4.946;2022-11-18T05:09:25;4.25;;;2.80;;
31694;SDS011;18289;51.330;4.946;2022-11-18T05:11:51;9.35;;;3.10;;
31694;SDS011;18289;51.330;4.946;2022-11-18T05:14:36;6.38;;;3.13;;
31694;SDS011;18289;51.330;4.946;2022-11-18T05:17:02;4.85;;;2.97;;
31694;SDS011;18289;51.330;4.946;2022-11-18T05:19:30;4.72;;;3.30;;
31694;SDS011;18289;51.330;4.946;2022-11-18T05:21:56;5.28;;;3.15;;
31694;SDS011;18289;51.330;4.946;2022-11-18T05:24:22;6.95;;;3.42;;
31694;SDS011;18289;51.330;4.946;2022-11-18T05:26:48;9.38;;;3.10;;
31694;SDS011;18289;51.330;4.946;2022-11-18T05:29:16;6.85;;;3.50;;
31694;SDS011;18289;51.330;4.946;2022-11-18T05:31:43;5.53;;;3.60;;
31694;SDS011;18289;51.330;4.946;2022-11-18T05:34:09;3.55;;;2.75;;
31694;SDS011;18289;51.330;4.946;2022-11-18T05:36:35;5.10;;;3.80;;
31694;SDS011;18289;51.330;4.946;2022-11-18T05:39:00;4.10;;;3.47;;
31694;SDS011;18289;51.330;4.946;2022-11-18T05:41:27;7.05;;;3.70;;
31694;SDS011;18289;51.330;4.946;2022-11-18T05:44:11;5.70;;;3.28;;
31694;SDS011;18289;51.330;4.946;2022-11-18T05:46:37;9.35;;;3.40;;
31694;SDS011;18289;51.330;4.946;2022-11-18T05:49:03;3.97;;;3.10;;
31694;SDS011;18289;51.330;4.946;2022-11-18T05:51:29;5.88;;;3.28;;
31694;SDS011;18289;51.330;4.946;2022-11-18T05:53:54;5.40;;;3.50;;
31694;SDS011;18289;51.330;4.946;2022-11-18T05:56:22;5.63;;;3.63;;
31694;SDS011;18289;51.330;4.946;2022-11-18T05:58:53;6.10;;;3.50;;
31694;SDS011;18289;51.330;4.946;2022-11-18T06:01:21;5.07;;;3.28;;
31694;SDS011;18289;51.330;4.946;2022-11-18T06:04:00;5.88;;;3.08;;
31694;SDS011;18289;51.330;4.946;2022-11-18T06:06:29;6.20;;;3.08;;
31694;SDS011;18289;51.330;4.946;2022-11-18T06:08:58;6.78;;;3.97;;
31694;SDS011;18289;51.330;4.946;2022-11-18T06:11:34;5.28;;;3.45;;
31694;SDS011;18289;51.330;4.946;2022-11-18T06:14:06;8.82;;;3.90;;
31694;SDS011;18289;51.330;4.946;2022-11-18T06:16:36;6.78;;;3.75;;
31694;SDS011;18289;51.330;4.946;2022-11-18T06:19:05;8.85;;;3.33;;
31694;SDS011;18289;51.330;4.946;2022-11-18T06:21:32;6.88;;;3.50;;
31694;SDS011;18289;51.330;4.946;2022-11-18T06:23:57;4.63;;;3.47;;
31694;SDS011;18289;51.330;4.946;2022-11-18T06:26:24;10.05;;;4.00;;
31694;SDS011;18289;51.330;4.946;2022-11-18T06:28:50;6.15;;;4.13;;
31694;SDS011;18289;51.330;4.946;2022-11-18T06:31:15;5.47;;;4.10;;
31694;SDS011;18289;51.330;4.946;2022-11-18T06:33:41;7.45;;;3.92;;
31694;SDS011;18289;51.330;4.946;2022-11-18T06:36:07;8.73;;;3.78;;
31694;SDS011;18289;51.330;4.946;2022-11-18T06:38:33;9.52;;;5.18;;
31694;SDS011;18289;51.330;4.946;2022-11-18T06:40:59;5.05;;;3.53;;
31694;SDS011;18289;51.330;4.946;2022-11-18T06:43:26;9.70;;;4.32;;
31694;SDS011;18289;51.330;4.946;2022-11-18T06:46:05;8.27;;;3.72;;
31694;SDS011;18289;51.330;4.946;2022-11-18T06:48:55;5.55;;;3.80;;
31694;SDS011;18289;51.330;4.946;2022-11-18T06:51:21;6.28;;;3.95;;
31694;SDS011;18289;51.330;4.946;2022-11-18T06:53:47;7.95;;;4.32;;
31694;SDS011;18289;51.330;4.946;2022-11-18T06:56:14;6.28;;;3.78;;
31694;SDS011;18289;51.330;4.946;2022-11-18T06:58:40;7.63;;;4.20;;
31694;SDS011;18289;51.330;4.946;2022-11-18T07:01:13;10.45;;;4.07;;
31694;SDS011;18289;51.330;4.946;2022-11-18T07:03:45;8.80;;;4.43;;
31694;SDS011;18289;51.330;4.946;2022-11-18T07:06:12;5.40;;;3.55;;
31694;SDS011;18289;51.330;4.946;2022-11-18T07:08:41;7.75;;;4.18;;
31694;SDS011;18289;51.330;4.946;2022-11-18T07:11:08;10.20;;;4.15;;
31694;SDS011;18289;51.330;4.946;2022-11-18T07:13:35;7.28;;;3.88;;
31694;SDS011;18289;51.330;4.946;2022-11-18T07:16:02;9.00;;;4.07;;
31694;SDS011;18289;51.330;4.946;2022-11-18T07:18:35;6.68;;;3.75;;
31694;SDS011;18289;51.330;4.946;2022-11-18T07:21:02;9.40;;;4.20;;
31694;SDS011;18289;51.330;4.946;2022-11-18T07:23:33;6.38;;;3.88;;
31694;SDS011;18289;51.330;4.946;2022-11-18T07:25:59;6.53;;;3.92;;
31694;SDS011;18289;51.330;4.946;2022-11-18T07:28:25;8.73;;;3.90;;
31694;SDS011;18289;51.330;4.946;2022-11-18T07:30:52;7.85;;;4.45;;
31694;SDS011;18289;51.330;4.946;2022-11-18T07:33:23;5.78;;;4.18;;
31694;SDS011;18289;51.330;4.946;2022-11-18T07:35:49;6.32;;;3.72;;
31694;SDS011;18289;51.330;4.946;2022-11-18T07:38:15;7.65;;;3.90;;
31694;SDS011;18289;51.330;4.946;2022-11-18T07:40:41;5.78;;;3.72;;
31694;SDS011;18289;51.330;4.946;2022-11-18T07:43:06;6.35;;;3.95;;
31694;SDS011;18289;51.330;4.946;2022-11-18T07:45:32;8.35;;;3.92;;
31694;SDS011;18289;51.330;4.946;2022-11-18T07:47:58;12.07;;;4.47;;
31694;SDS011;18289;51.330;4.946;2022-11-18T07:50:24;5.65;;;3.90;;
31694;SDS011;18289;51.330;4.946;2022-11-18T07:52:50;5.80;;;3.85;;
31694;SDS011;18289;51.330;4.946;2022-11-18T07:55:19;8.40;;;4.63;;
31694;SDS011;18289;51.330;4.946;2022-11-18T07:57:45;9.80;;;4.53;;
31694;SDS011;18289;51.330;4.946;2022-11-18T08:00:11;6.68;;;4.10;;
31694;SDS011;18289;51.330;4.946;2022-11-18T08:02:37;14.02;;;4.35;;
31694;SDS011;18289;51.330;4.946;2022-11-18T08:05:02;8.85;;;4.10;;
31694;SDS011;18289;51.330;4.946;2022-11-18T08:07:28;13.65;;;4.50;;
31694;SDS011;18289;51.330;4.946;2022-11-18T08:09:54;6.00;;;4.05;;
31694;SDS011;18289;51.330;4.946;2022-11-18T08:12:20;9.02;;;4.43;;
31694;SDS011;18289;51.330;4.946;2022-11-18T08:14:45;6.93;;;4.28;;
31694;SDS011;18289;51.330;4.946;2022-11-18T08:17:11;12.25;;;4.68;;
31694;SDS011;18289;51.330;4.946;2022-11-18T08:19:37;10.13;;;4.40;;
31694;SDS011;18289;51.330;4.946;2022-11-18T08:22:02;6.97;;;4.65;;
31694;SDS011;18289;51.330;4.946;2022-11-18T08:24:28;7.03;;;3.80;;
31694;SDS011;18289;51.330;4.946;2022-11-18T08:26:53;9.07;;;3.78;;
31694;SDS011;18289;51.330;4.946;2022-11-18T08:29:19;8.70;;;4.63;;
31694;SDS011;18289;51.330;4.946;2022-11-18T08:31:45;9.70;;;4.25;;
31694;SDS011;18289;51.330;4.946;2022-11-18T08:34:10;9.57;;;4.20;;
31694;SDS011;18289;51.330;4.946;2022-11-18T08:36:37;7.60;;;4.30;;
31694;SDS011;18289;51.330;4.946;2022-11-18T08:39:05;12.43;;;4.38;;
31694;SDS011;18289;51.330;4.946;2022-11-18T08:41:33;12.27;;;4.10;;
31694;SDS011;18289;51.330;4.946;2022-11-18T08:44:01;12.02;;;4.72;;
31694;SDS011;18289;51.330;4.946;2022-11-18T08:46:28;9.98;;;4.15;;
31694;SDS011;18289;51.330;4.946;2022-11-18T08:48:54;9.00;;;4.40;;
31694;SDS011;18289;51.330;4.946;2022-11-18T08:51:20;8.45;;;4.10;;
31694;SDS011;18289;51.330;4.946;2022-11-18T08:53:46;9.48;;;3.50;;
31694;SDS011;18289;51.330;4.946;2022-11-18T08:56:15;7.93;;;3.92;;
31694;SDS011;18289;51.330;4.946;2022-11-18T08:58:43;9.18;;;3.90;;
31694;SDS011;18289;51.330;4.946;2022-11-18T09:01:09;7.32;;;4.10;;
31694;SDS011;18289;51.330;4.946;2022-11-18T09:03:35;8.63;;;3.40;;
31694;SDS011;18289;51.330;4.946;2022-11-18T09:06:08;6.68;;;3.22;;
31694;SDS011;18289;51.330;4.946;2022-11-18T09:08:35;8.85;;;3.40;;
31694;SDS011;18289;51.330;4.946;2022-11-18T09:11:08;5.35;;;3.25;;
31694;SDS011;18289;51.330;4.946;2022-11-18T09:13:41;5.50;;;3.22;;
31694;SDS011;18289;51.330;4.946;2022-11-18T09:16:07;8.10;;;3.97;;
31694;SDS011;18289;51.330;4.946;2022-11-18T09:18:33;7.10;;;3.15;;
31694;SDS011;18289;51.330;4.946;2022-11-18T09:21:01;8.65;;;3.10;;
31694;SDS011;18289;51.330;4.946;2022-11-18T09:23:29;7.57;;;3.43;;
31694;SDS011;18289;51.330;4.946;2022-11-18T09:25:58;5.90;;;3.28;;
31694;SDS011;18289;51.330;4.946;2022-11-18T09:28:31;7.10;;;2.60;;
31694;SDS011;18289;51.330;4.946;2022-11-18T09:30:57;5.72;;;3.05;;
31694;SDS011;18289;51.330;4.946;2022-11-18T09:33:23;6.80;;;3.00;;
31694;SDS011;18289;51.330;4.946;2022-11-18T09:35:48;6.95;;;2.88;;
31694;SDS011;18289;51.330;4.946;2022-11-18T09:38:14;4.55;;;2.85;;
31694;SDS011;18289;51.330;4.946;2022-11-18T09:43:15;7.25;;;2.78;;
31694;SDS011;18289;51.330;4.946;2022-11-18T09:45:50;5.13;;;2.70;;
31694;SDS011;18289;51.330;4.946;2022-11-18T09:48:28;6.20;;;3.30;;
31694;SDS011;18289;51.330;4.946;2022-11-18T09:51:12;5.00;;;3.03;;
31694;SDS011;18289;51.330;4.946;2022-11-18T09:53:41;5.88;;;3.08;;
31694;SDS011;18289;51.330;4.946;2022-11-18T09:56:12;7.18;;;3.45;;
31694;SDS011;18289;51.330;4.946;2022-11-18T09:58:39;5.95;;;2.85;;
31694;SDS011;18289;51.330;4.946;2022-11-18T10:01:13;7.90;;;2.95;;
31694;SDS011;18289;51.330;4.946;2022-11-18T10:03:43;10.05;;;4.50;;
31694;SDS011;18289;51.330;4.946;2022-11-18T10:06:16;8.90;;;3.03;;
31694;SDS011;18289;51.330;4.946;2022-11-18T10:14:42;4.30;;;2.92;;
31694;SDS011;18289;51.330;4.946;2022-11-18T10:19:56;7.60;;;2.80;;
31694;SDS011;18289;51.330;4.946;2022-11-18T10:23:49;7.72;;;2.80;;
31694;SDS011;18289;51.330;4.946;2022-11-18T10:25:46;6.28;;;3.30;;
31694;SDS011;18289;51.330;4.946;2022-11-18T10:28:25;6.05;;;3.08;;
31694;SDS011;18289;51.330;4.946;2022-11-18T10:31:06;3.58;;;2.33;;
31694;SDS011;18289;51.330;4.946;2022-11-18T10:33:35;6.07;;;3.03;;
31694;SDS011;18289;51.330;4.946;2022-11-18T10:36:10;6.20;;;2.90;;
31694;SDS011;18289;51.330;4.946;2022-11-18T10:38:42;6.88;;;3.28;;
31694;SDS011;18289;51.330;4.946;2022-11-18T10:41:10;9.98;;;3.40;;
31694;SDS011;18289;51.330;4.946;2022-11-18T10:43:44;7.13;;;3.20;;
31694;SDS011;18289;51.330;4.946;2022-11-18T10:46:22;9.65;;;3.38;;
31694;SDS011;18289;51.330;4.946;2022-11-18T10:49:05;5.13;;;2.60;;
31694;SDS011;18289;51.330;4.946;2022-11-18T10:51:32;5.72;;;2.92;;
31694;SDS011;18289;51.330;4.946;2022-11-18T11:04:50;6.05;;;2.92;;
31694;SDS011;18289;51.330;4.946;2022-11-18T11:10:33;5.00;;;2.78;;
31694;SDS011;18289;51.330;4.946;2022-11-18T11:12:43;6.20;;;3.00;;
31694;SDS011;18289;51.330;4.946;2022-11-18T11:16:00;7.55;;;3.13;;
31694;SDS011;18289;51.330;4.946;2022-11-18T11:18:10;4.25;;;2.65;;
31694;SDS011;18289;51.330;4.946;2022-11-18T11:21:00;3.70;;;2.90;;
31694;SDS011;18289;51.330;4.946;2022-11-18T11:23:25;6.63;;;3.05;;
31694;SDS011;18289;51.330;4.946;2022-11-18T11:25:56;6.30;;;2.72;;
31694;SDS011;18289;51.330;4.946;2022-11-18T11:28:33;9.43;;;3.83;;
31694;SDS011;18289;51.330;4.946;2022-11-18T11:36:40;7.03;;;3.63;;
31694;SDS011;18289;51.330;4.946;2022-11-18T11:55:51;6.20;;;3.25;;
31694;SDS011;18289;51.330;4.946;2022-11-18T12:06:55;7.53;;;3.17;;
31694;SDS011;18289;51.330;4.946;2022-11-18T12:17:22;5.65;;;3.35;;
31694;SDS011;18289;51.330;4.946;2022-11-18T12:19:51;6.03;;;3.40;;
31694;SDS011;18289;51.330;4.946;2022-11-18T12:22:17;6.00;;;2.88;;
31694;SDS011;18289;51.330;4.946;2022-11-18T12:24:43;4.63;;;3.17;;
31694;SDS011;18289;51.330;4.946;2022-11-18T12:27:12;6.93;;;3.70;;
31694;SDS011;18289;51.330;4.946;2022-11-18T12:32:27;7.30;;;3.72;;
31694;SDS011;18289;51.330;4.946;2022-11-18T12:34:59;5.85;;;3.67;;
31694;SDS011;18289;51.330;4.946;2022-11-18T12:37:37;6.63;;;3.40;;
31694;SDS011;18289;51.330;4.946;2022-11-18T12:40:06;7.53;;;3.53;;
31694;SDS011;18289;51.330;4.946;2022-11-18T12:42:40;9.02;;;3.15;;
31694;SDS011;18289;51.330;4.946;2022-11-18T12:46:08;5.30;;;2.92;;
31694;SDS011;18289;51.330;4.946;2022-11-18T12:48:29;6.13;;;2.97;;
31694;SDS011;18289;51.330;4.946;2022-11-18T12:50:57;5.53;;;3.25;;
31694;SDS011;18289;51.330;4.946;2022-11-18T12:55:53;10.30;;;4.40;;
31694;SDS011;18289;51.330;4.946;2022-11-18T12:58:22;5.38;;;3.03;;
31694;SDS011;18289;51.330;4.946;2022-11-18T13:00:49;6.60;;;3.30;;
31694;SDS011;18289;51.330;4.946;2022-11-18T13:03:21;7.85;;;3.35;;
31694;SDS011;18289;51.330;4.946;2022-11-18T13:05:49;7.32;;;3.25;;
31694;SDS011;18289;51.330;4.946;2022-11-18T13:08:22;4.25;;;3.13;;
31694;SDS011;18289;51.330;4.946;2022-11-18T13:10:52;7.78;;;3.08;;
31694;SDS011;18289;51.330;4.946;2022-11-18T13:13:44;5.65;;;3.38;;
31694;SDS011;18289;51.330;4.946;2022-11-18T13:16:17;5.30;;;3.22;;
31694;SDS011;18289;51.330;4.946;2022-11-18T13:19:03;5.10;;;3.35;;
31694;SDS011;18289;51.330;4.946;2022-11-18T13:21:30;4.72;;;2.97;;
31694;SDS011;18289;51.330;4.946;2022-11-18T13:24:14;5.47;;;3.17;;
31694;SDS011;18289;51.330;4.946;2022-11-18T13:26:43;7.05;;;3.20;;
31694;SDS011;18289;51.330;4.946;2022-11-18T13:34:24;5.80;;;3.42;;
31694;SDS011;18289;51.330;4.946;2022-11-18T13:36:52;4.75;;;2.33;;
31694;SDS011;18289;51.330;4.946;2022-11-18T13:39:23;6.05;;;2.90;;
31694;SDS011;18289;51.330;4.946;2022-11-18T13:41:57;5.50;;;2.70;;
31694;SDS011;18289;51.330;4.946;2022-11-18T13:44:25;3.92;;;3.20;;
31694;SDS011;18289;51.330;4.946;2022-11-18T13:46:58;7.45;;;3.42;;
31694;SDS011;18289;51.330;4.946;2022-11-18T13:49:30;6.60;;;3.17;;
31694;SDS011;18289;51.330;4.946;2022-11-18T13:52:26;8.50;;;3.50;;
31694;SDS011;18289;51.330;4.946;2022-11-18T13:55:00;4.18;;;3.30;;
31694;SDS011;18289;51.330;4.946;2022-11-18T13:57:32;8.77;;;3.10;;
31694;SDS011;18289;51.330;4.946;2022-11-18T14:00:00;5.85;;;3.20;;
31694;SDS011;18289;51.330;4.946;2022-11-18T14:02:30;9.60;;;3.25;;
31694;SDS011;18289;51.330;4.946;2022-11-18T14:04:56;4.93;;;3.20;;
31694;SDS011;18289;51.330;4.946;2022-11-18T14:07:33;5.53;;;3.35;;
31694;SDS011;18289;51.330;4.946;2022-11-18T14:10:00;9.98;;;4.25;;
31694;SDS011;18289;51.330;4.946;2022-11-18T14:12:30;5.82;;;3.15;;
31694;SDS011;18289;51.330;4.946;2022-11-18T14:15:14;7.90;;;3.92;;
31694;SDS011;18289;51.330;4.946;2022-11-18T14:17:57;5.73;;;3.23;;
31694;SDS011;18289;51.330;4.946;2022-11-18T14:20:26;4.30;;;3.60;;
31694;SDS011;18289;51.330;4.946;2022-11-18T14:22:54;7.43;;;3.67;;
31694;SDS011;18289;51.330;4.946;2022-11-18T14:31:28;6.65;;;4.10;;
31694;SDS011;18289;51.330;4.946;2022-11-18T14:36:35;6.93;;;3.90;;
31694;SDS011;18289;51.330;4.946;2022-11-18T14:39:01;7.47;;;4.10;;
31694;SDS011;18289;51.330;4.946;2022-11-18T14:41:57;8.32;;;4.30;;
31694;SDS011;18289;51.330;4.946;2022-11-18T14:44:24;9.18;;;4.05;;
31694;SDS011;18289;51.330;4.946;2022-11-18T14:46:52;5.97;;;3.67;;
31694;SDS011;18289;51.330;4.946;2022-11-18T14:49:24;7.22;;;4.00;;
31694;SDS011;18289;51.330;4.946;2022-11-18T14:51:51;5.45;;;3.95;;
31694;SDS011;18289;51.330;4.946;2022-11-18T14:54:19;7.00;;;3.78;;
31694;SDS011;18289;51.330;4.946;2022-11-18T14:56:47;6.63;;;3.90;;
31694;SDS011;18289;51.330;4.946;2022-11-18T14:59:15;7.65;;;3.85;;
31694;SDS011;18289;51.330;4.946;2022-11-18T15:01:42;8.55;;;4.25;;
31694;SDS011;18289;51.330;4.946;2022-11-18T15:04:08;9.05;;;4.80;;
31694;SDS011;18289;51.330;4.946;2022-11-18T15:06:34;9.38;;;4.70;;
31694;SDS011;18289;51.330;4.946;2022-11-18T15:09:03;8.63;;;4.78;;
31694;SDS011;18289;51.330;4.946;2022-11-18T15:11:30;10.82;;;6.45;;
31694;SDS011;18289;51.330;4.946;2022-11-18T15:13:55;9.07;;;4.80;;
31694;SDS011;18289;51.330;4.946;2022-11-18T15:16:28;6.72;;;4.82;;
31694;SDS011;18289;51.330;4.946;2022-11-18T15:18:57;12.60;;;5.22;;
31694;SDS011;18289;51.330;4.946;2022-11-18T15:21:24;7.57;;;4.80;;
31694;SDS011;18289;51.330;4.946;2022-11-18T15:23:51;8.15;;;5.10;;
31694;SDS011;18289;51.330;4.946;2022-11-18T15:26:23;7.28;;;4.47;;
31694;SDS011;18289;51.330;4.946;2022-11-18T15:28:55;11.40;;;4.93;;
31694;SDS011;18289;51.330;4.946;2022-11-18T15:31:22;4.82;;;4.07;;
31694;SDS011;18289;51.330;4.946;2022-11-18T15:33:49;9.30;;;4.85;;
31694;SDS011;18289;51.330;4.946;2022-11-18T15:36:24;7.40;;;4.25;;
31694;SDS011;18289;51.330;4.946;2022-11-18T15:38:51;8.48;;;4.35;;
31694;SDS011;18289;51.330;4.946;2022-11-18T15:41:20;7.65;;;5.53;;
31694;SDS011;18289;51.330;4.946;2022-11-18T15:43:48;8.57;;;4.75;;
31694;SDS011;18289;51.330;4.946;2022-11-18T15:46:14;11.65;;;5.50;;
31694;SDS011;18289;51.330;4.946;2022-11-18T15:48:43;7.93;;;4.50;;
31694;SDS011;18289;51.330;4.946;2022-11-18T15:51:09;11.48;;;4.90;;
31694;SDS011;18289;51.330;4.946;2022-11-18T15:53:35;10.40;;;5.15;;
31694;SDS011;18289;51.330;4.946;2022-11-18T15:58:57;10.27;;;4.95;;
31694;SDS011;18289;51.330;4.946;2022-11-18T16:01:26;9.60;;;5.75;;
31694;SDS011;18289;51.330;4.946;2022-11-18T16:03:55;10.32;;;4.90;;
31694;SDS011;18289;51.330;4.946;2022-11-18T16:06:21;11.23;;;4.97;;
31694;SDS011;18289;51.330;4.946;2022-11-18T16:08:48;8.88;;;4.72;;
31694;SDS011;18289;51.330;4.946;2022-11-18T16:11:14;10.65;;;5.30;;
31694;SDS011;18289;51.330;4.946;2022-11-18T16:14:06;5.22;;;4.72;;
31694;SDS011;18289;51.330;4.946;2022-11-18T16:16:34;8.18;;;4.88;;
31694;SDS011;18289;51.330;4.946;2022-11-18T16:19:01;7.47;;;4.60;;
31694;SDS011;18289;51.330;4.946;2022-11-18T16:21:31;8.10;;;4.65;;
31694;SDS011;18289;51.330;4.946;2022-11-18T16:23:58;10.43;;;5.78;;
31694;SDS011;18289;51.330;4.946;2022-11-18T16:26:25;5.60;;;4.05;;
31694;SDS011;18289;51.330;4.946;2022-11-18T16:28:51;10.02;;;5.30;;
31694;SDS011;18289;51.330;4.946;2022-11-18T16:31:17;9.18;;;5.63;;
31694;SDS011;18289;51.330;4.946;2022-11-18T16:34:05;11.38;;;6.30;;
31694;SDS011;18289;51.330;4.946;2022-11-18T16:38:57;11.82;;;5.55;;
31694;SDS011;18289;51.330;4.946;2022-11-18T16:41:28;12.52;;;6.55;;
31694;SDS011;18289;51.330;4.946;2022-11-18T16:43:57;7.40;;;5.77;;
31694;SDS011;18289;51.330;4.946;2022-11-18T16:46:30;8.85;;;6.13;;
31694;SDS011;18289;51.330;4.946;2022-11-18T16:48:58;11.70;;;6.28;;
31694;SDS011;18289;51.330;4.946;2022-11-18T16:51:25;11.55;;;6.70;;
31694;SDS011;18289;51.330;4.946;2022-11-18T16:53:53;9.43;;;6.15;;
31694;SDS011;18289;51.330;4.946;2022-11-18T16:56:30;10.38;;;6.40;;